Time;durP1;ratioP1;P1;durP2;ratioP2;P2;SDS_P1;SDS_P2;PMS_P1;PMS_P2;Temp;Humidity;BMP_temperature;BMP_pressure;BME280_temperature;BME280_humidity;BME280_pressure;Samples;Min_cycle;Max_cycle;Signal;HPM_P1;HPM_P2
2023/04/03 00:01:24;;;;;;;;;;;;;;;;;;137067;1272;23042;-84
2023/04/03 00:04:25;;;;;;;;;;;;;;;;;;136996;1272;22541;-85
2023/04/03 00:07:26;;;;;;;;;;;;;;;;;;137479;1272;22518;-85
2023/04/03 00:10:27;;;;;;;;;;;;;;;;;;137182;1272;22484;-85
2023/04/03 00:13:28;;;;;;;;;;;;;;;;;;136970;1272;22556;-85
2023/04/03 00:16:29;;;;;;;;;;;;;;;;;;137275;1272;22519;-86
2023/04/03 00:19:30;;;;;;;;;;;;;;;;;;137426;1272;23042;-85
2023/04/03 00:22:31;;;;;;;;;;;;;;;;;;136871;1272;22570;-84
2023/04/03 00:25:32;;;;;;;;;;;;;;;;;;137184;1272;25324;-86
2023/04/03 00:28:33;;;;;;;;;;;;;;;;;;137601;1272;22499;-83
2023/04/03 00:31:35;;;;;;;;;;;;;;;;;;136999;1272;22544;-83
2023/04/03 00:34:36;;;;;;;;;;;;;;;;;;136951;1272;22542;-85
2023/04/03 00:37:37;;;;;;;;;;;;;;;;;;137671;1272;22838;-86
2023/04/03 00:40:38;;;;;;;;;;;;;;;;;;137093;1270;22519;-84
2023/04/03 00:43:39;;;;;;;;;;;;;;;;;;136919;1272;22537;-86
2023/04/03 00:46:40;;;;;;;;;;;;;;;;;;137407;1272;22513;-87
2023/04/03 00:49:41;;;;;;;;;;;;;;;;;;137042;1272;22802;-85
2023/04/03 00:52:42;;;;;;;;;;;;;;;;;;136978;1272;22976;-87
2023/04/03 00:55:43;;;;;;;;;;;;;;;;;;137095;1272;25378;-88
2023/04/03 00:58:44;;;;;;;;;;;;;;;;;;137043;1272;22988;-87
2023/04/03 01:01:45;;;;;;;;;;;;;;;;;;136705;1272;22515;-85
2023/04/03 01:04:47;;;;;;;;;;;;;;;;;;137356;1272;22517;-85
2023/04/03 01:07:48;;;;;;;;;;;;;;;;;;137259;1272;22503;-86
2023/04/03 01:10:49;;;;;;;;;;;;;;;;;;136743;1272;22565;-85
2023/04/03 01:13:50;;;;;;;;;;;;;;;;;;137137;1272;25872;-87
2023/04/03 01:16:51;;;;;;;;;;;;;;;;;;136855;1272;22540;-85
2023/04/03 01:19:52;;;;;;;;;;;;;;;;;;136963;1272;22566;-86
2023/04/03 01:22:53;;;;;;;;;;;;;;;;;;137182;1272;25315;-86
2023/04/03 01:25:54;;;;;;;;;;;;;;;;;;137039;1272;22540;-87
2023/04/03 01:28:55;;;;;;;;;;;;;;;;;;137026;1272;22523;-87
2023/04/03 01:31:56;;;;;;;;;;;;;;;;;;137289;1272;22518;-87
2023/04/03 01:34:57;;;;;;;;;;;;;;;;;;137096;1272;22537;-85
2023/04/03 01:37:59;;;;;;;;;;;;;;;;;;136896;1272;22540;-88
2023/04/03 01:41:00;;;;;;;;;;;;;;;;;;137081;1272;22517;-88
2023/04/03 01:44:01;;;;;;;;;;;;;;;;;;137360;1272;22501;-86
2023/04/03 01:47:02;;;;;;;;;;;;;;;;;;137026;1272;22550;-87
2023/04/03 01:50:03;;;;;;;;;;;;;;;;;;137070;1272;22518;-87
2023/04/03 01:53:04;;;;;;;;;;;;;;;;;;137612;1272;22565;-87
2023/04/03 01:56:05;;;;;;;;;;;;;;;;;;136988;1272;22533;-87
2023/04/03 01:59:06;;;;;;;;;;;;;;;;;;136998;1272;22521;-86
2023/04/03 02:02:07;;;;;;;;;;;;;;;;;;137772;1272;22316;-85
2023/04/03 02:05:08;;;;;;;;;;;;;;;;;;136945;1272;22504;-87
2023/04/03 02:08:09;;;;;;;;;;;;;;;;;;136955;1272;22567;-84
2023/04/03 02:11:10;;;;;;;;;;;;;;;;;;137436;1272;22445;-88
2023/04/03 02:14:11;;;;;;;;;;;;;;;;;;137139;1272;22490;-85
2023/04/03 02:17:12;;;;;;;;;;;;;;;;;;136975;1272;26024;-81
2023/04/03 02:20:13;;;;;;;;;;;;;;;;;;137318;1272;22522;-88
2023/04/03 02:23:15;;;;;;;;;;;;;;;;;;137277;1272;22503;-86
2023/04/03 02:26:16;;;;;;;;;;;;;;;;;;136822;1272;22525;-84
2023/04/03 02:29:17;;;;;;;;;;;;;;;;;;137320;1272;22518;-86
2023/04/03 02:32:18;;;;;;;;;;;;;;;;;;137428;1272;22859;-84
2023/04/03 02:35:19;;;;;;;;;;;;;;;;;;137010;1272;22978;-85
2023/04/03 02:38:20;;;;;;;;;;;;;;;;;;137015;1272;24877;-84
2023/04/03 02:41:21;;;;;;;;;;;;;;;;;;137629;1272;22527;-85
2023/04/03 02:44:23;;;;;;;;;;;;;;;;;;137066;1269;22498;-84
2023/04/03 02:47:24;;;;;;;;;;;;;;;;;;137004;1272;22586;-86
2023/04/03 02:50:25;;;;;;;;;;;;;;;;;;137515;1272;22526;-86
2023/04/03 02:53:26;;;;;;;;;;;;;;;;;;137000;1272;23068;-84
2023/04/03 02:56:27;;;;;;;;;;;;;;;;;;137127;1272;22545;-85
2023/04/03 02:59:31;;;;;;;;;;;;;;;;;;137649;1272;22498;-86
2023/04/03 03:02:32;;;;;;;;;;;;;;;;;;137244;1272;22539;-86
2023/04/03 03:05:36;;;;;;;;;;;;;;;;;;137020;1272;23105;-84
2023/04/03 03:08:37;;;;;;;;;;;;;;;;;;137346;1272;22525;-88
2023/04/03 03:11:38;;;;;;;;;;;;;;;;;;137422;1272;23086;-84
2023/04/03 03:14:40;;;;;;;;;;;;;;;;;;137049;1267;22500;-85
2023/04/03 03:17:43;;;;;;;;;;;;;;;;;;137128;1272;22530;-87
2023/04/03 03:20:44;;;;;;;;;;;;;;;;;;137707;1272;22514;-85
2023/04/03 03:23:45;;;;;;;;;;;;;;;;;;137055;1272;22735;-87
2023/04/03 03:26:46;;;;;;;;;;;;;;;;;;137102;1272;22578;-87
2023/04/03 03:29:48;;;;;;;;;;;;;;;;;;137792;1272;22940;-84
2023/04/03 03:32:49;;;;;;;;;;;;;;;;;;136917;1272;22519;-84
2023/04/03 03:35:50;;;;;;;;;;;;;;;;;;137124;1272;22510;-86
2023/04/03 03:38:51;;;;;;;;;;;;;;;;;;137541;1272;22956;-86
2023/04/03 03:41:53;;;;;;;;;;;;;;;;;;137056;1272;22508;-85
2023/04/03 03:44:54;;;;;;;;;;;;;;;;;;136871;1272;22524;-86
2023/04/03 03:47:56;;;;;;;;;;;;;;;;;;137280;1272;22522;-85
2023/04/03 03:50:57;;;;;;;;;;;;;;;;;;136688;1272;23260;-86
2023/04/03 03:53:58;;;;;;;;;;;;;;;;;;137412;1272;22563;-86
2023/04/03 03:56:59;;;;;;;;;;;;;;;;;;137514;1272;22539;-84
2023/04/03 04:00:00;;;;;;;;;;;;;;;;;;137227;1272;22499;-84
2023/04/03 04:03:01;;;;;;;;;;;;;;;;;;137703;1272;22309;-84
2023/04/03 04:06:02;;;;;;;;;;;;;;;;;;137684;1272;22322;-83
2023/04/03 04:09:03;;;;;;;;;;;;;;;;;;137704;1272;22328;-86
2023/04/03 04:12:05;;;;;;;;;;;;;;;;;;137662;1272;22254;-84
2023/04/03 04:15:06;;;;;;;;;;;;;;;;;;137649;1272;22314;-82
2023/04/03 04:18:07;;;;;;;;;;;;;;;;;;137376;1272;22466;-83
2023/04/03 04:21:08;;;;;;;;;;;;;;;;;;137118;1272;22545;-83
2023/04/03 04:24:09;;;;;;;;;;;;;;;;;;137709;1272;22299;-82
2023/04/03 04:27:10;;;;;;;;;;;;;;;;;;137755;1272;22374;-81
2023/04/03 04:30:11;;;;;;;;;;;;;;;;;;137166;1272;22509;-82
2023/04/03 04:33:13;;;;;;;;;;;;;;;;;;137371;1272;22558;-81
2023/04/03 04:36:15;;;;;;;;;;;;;;;;;;137364;1272;23120;-82
2023/04/03 04:39:16;;;;;;;;;;;;;;;;;;137011;1272;22502;-81
2023/04/03 04:42:17;;;;;;;;;;;;;;;;;;137199;1272;22514;-82
2023/04/03 04:45:18;;;;;;;;;;;;;;;;;;137543;1272;22506;-81
2023/04/03 04:48:19;;;;;;;;;;;;;;;;;;137720;1272;22437;-81
2023/04/03 04:51:20;;;;;;;;;;;;;;;;;;137700;1272;22332;-79
2023/04/03 04:54:21;;;;;;;;;;;;;;;;;;137618;1269;22298;-80
2023/04/03 04:57:22;;;;;;;;;;;;;;;;;;137632;1272;22334;-80
2023/04/03 05:00:23;;;;;;;;;;;;;;;;;;137601;1272;22326;-81
2023/04/03 05:03:24;;;;;;;;;;;;;;;;;;137668;1272;22308;-80
2023/04/03 05:06:25;;;;;;;;;;;;;;;;;;137653;1272;22356;-79
2023/04/03 05:09:27;;;;;;;;;;;;;;;;;;137561;1272;181305;-79
2023/04/03 05:12:28;;;;;;;;;;;;;;;;;;137691;1272;22290;-79
2023/04/03 05:15:29;;;;;;;;;;;;;;;;;;137732;1272;22425;-79
2023/04/03 05:18:31;;;;;;;;;;;;;;;;;;137475;1272;22537;-79
2023/04/03 05:21:32;;;;;;;;;;;;;;;;;;137679;1272;22307;-79
2023/04/03 05:24:33;;;;;;;;;;;;;;;;;;137662;1272;22872;-79
2023/04/03 05:27:34;;;;;;;;;;;;;;;;;;137724;1272;22382;-78
2023/04/03 05:30:35;;;;;;;;;;;;;;;;;;137679;1272;22340;-79
2023/04/03 05:33:36;;;;;;;;;;;;;;;;;;137665;1269;22364;-78
2023/04/03 05:36:37;;;;;;;;;;;;;;;;;;137643;1272;22289;-78
2023/04/03 05:39:40;;;;;;;;;;;;;;;;;;137675;1256;22283;-79
2023/04/03 05:42:41;;;;;;;;;;;;;;;;;;137404;1272;22873;-79
2023/04/03 05:45:42;;;;;;;;;;;;;;;;;;137038;1272;22491;-78
2023/04/03 05:48:43;;;;;;;;;;;;;;;;;;137763;1266;22431;-78
2023/04/03 05:51:45;;;;;;;;;;;;;;;;;;137703;1272;22310;-79
2023/04/03 05:54:47;;;;;;;;;;;;;;;;;;137717;1272;22352;-79
2023/04/03 05:57:49;;;;;;;;;;;;;;;;;;137654;1272;22431;-78
2023/04/03 06:00:50;;;;;;;;;;;;;;;;;;137654;1272;22307;-78
2023/04/03 06:03:51;;;;;;;;;;;;;;;;;;137633;1272;22344;-79
2023/04/03 06:06:52;;;;;;;;;;;;;;;;;;137627;1272;23126;-78
2023/04/03 06:09:54;;;;;;;;;;;;;;;;;;137609;1272;22276;-79
2023/04/03 06:12:55;;;;;;;;;;;;;;;;;;137648;1272;22327;-79
2023/04/03 06:15:57;;;;;;;;;;;;;;;;;;137605;1272;22368;-79
2023/04/03 06:18:58;;;;;;;;;;;;;;;;;;137670;1272;22291;-79
2023/04/03 06:21:59;;;;;;;;;;;;;;;;;;137691;1272;22939;-79
2023/04/03 06:25:00;;;;;;;;;;;;;;;;;;137681;1272;22277;-79
2023/04/03 06:28:01;;;;;;;;;;;;;;;;;;137713;1272;22278;-78
2023/04/03 06:31:02;;;;;;;;;;;;;;;;;;137654;1272;22271;-78
2023/04/03 06:34:03;;;;;;;;;;;;;;;;;;137694;1272;22277;-79
2023/04/03 06:37:04;;;;;;;;;;;;;;;;;;137675;1272;22328;-79
2023/04/03 06:40:05;;;;;;;;;;;;;;;;;;137579;1272;22359;-80
2023/04/03 06:43:07;;;;;;;;;;;;;;;;;;137694;1272;22320;-79
2023/04/03 06:46:08;;;;;;;;;;;;;;;;;;137678;1268;22395;-81
2023/04/03 06:49:09;;;;;;;;;;;;;;;;;;137743;1272;22962;-84
2023/04/03 06:52:11;;;;;;;;;;;;;;;;;;137701;1272;22888;-81
2023/04/03 06:55:12;;;;;;;;;;;;;;;;;;137711;1272;22339;-82
2023/04/03 06:58:15;;;;;;;;;;;;;;;;;;137764;1267;22343;-82
2023/04/03 07:01:17;;;;;;;;;;;;;;;;;;137775;1272;22680;-83
2023/04/03 07:04:20;;;;;;;;;;;;;;;;;;137706;1272;22357;-82
2023/04/03 07:07:21;;;;;;;;;;;;;;;;;;136988;1272;22509;-81
2023/04/03 07:10:22;;;;;;;;;;;;;;;;;;137394;1272;26024;-81
2023/04/03 07:13:23;;;;;;;;;;;;;;;;;;137761;1272;22315;-81
2023/04/03 07:16:24;;;;;;;;;;;;;;;;;;137491;1272;22607;-81
2023/04/03 07:19:27;;;;;;;;;;;;;;;;;;137060;1269;22529;-81
2023/04/03 07:22:31;;;;;;;;;;;;;;;;;;137498;1272;22915;-82
2023/04/03 07:25:39;;;;;;;;;;;;;;;;;;137508;1272;22486;-81
2023/04/03 07:28:41;;;;;;;;;;;;;;;;;;137142;1272;22517;-81
2023/04/03 07:31:42;;;;;;;;;;;;;;;;;;137253;1272;22587;-83
2023/04/03 07:34:43;;;;;;;;;;;;;;;;;;137618;1272;22534;-82
2023/04/03 07:37:44;;;;;;;;;;;;;;;;;;137266;1272;22567;-80
2023/04/03 07:40:46;;;;;;;;;;;;;;;;;;137260;1268;22637;-81
2023/04/03 07:43:49;;;;;;;;;;;;;;;;;;137672;1272;22486;-80
2023/04/03 07:46:50;;;;;;;;;;;;;;;;;;137265;1272;22532;-81
2023/04/03 07:49:51;;;;;;;;;;;;;;;;;;137452;1272;22535;-81
2023/04/03 07:52:54;;;;;;;;;;;;;;;;;;137625;1272;22516;-81
2023/04/03 07:55:56;;;;;;;;;;;;;;;;;;137160;1272;22659;-82
2023/04/03 07:58:57;;;;;;;;;;;;;;;;;;137110;1272;22513;-83
2023/04/03 08:01:59;;;;;;;;;;;;;;;;;;137538;1272;23102;-82
2023/04/03 08:05:00;;;;;;;;;;;;;;;;;;137441;1272;22482;-82
2023/04/03 08:08:01;;;;;;;;;;;;;;;;;;137237;1272;22499;-81
2023/04/03 08:11:02;;;;;;;;;;;;;;;;;;137291;1272;22507;-81
2023/04/03 08:14:03;;;;;;;;;;;;;;;;;;137518;1272;22917;-81
2023/04/03 08:17:05;;;;;;;;;;;;;;;;;;137181;1272;22516;-82
2023/04/03 08:20:06;;;;;;;;;;;;;;;;;;137325;1272;25970;-82
2023/04/03 08:23:07;;;;;;;;;;;;;;;;;;137730;1272;22331;-82
2023/04/03 08:26:08;;;;;;;;;;;;;;;;;;137415;1272;22500;-82
2023/04/03 08:29:10;;;;;;;;;;;;;;;;;;137669;1272;22361;-81
2023/04/03 08:32:11;;;;;;;;;;;;;;;;;;137693;1272;22359;-82
2023/04/03 08:35:12;;;;;;;;;;;;;;;;;;137325;1272;22492;-83
2023/04/03 08:38:13;;;;;;;;;;;;;;;;;;137693;1272;22231;-82
2023/04/03 08:41:15;;;;;;;;;;;;;;;;;;137412;1272;22948;-82
2023/04/03 08:44:16;;;;;;;;;;;;;;;;;;137257;1272;22507;-82
2023/04/03 08:47:17;;;;;;;;;;;;;;;;;;137599;1272;22551;-82
2023/04/03 08:50:18;;;;;;;;;;;;;;;;;;137631;1272;22521;-83
2023/04/03 08:53:20;;;;;;;;;;;;;;;;;;137295;1272;22494;-84
2023/04/03 08:56:22;;;;;;;;;;;;;;;;;;137162;1272;22493;-84
2023/04/03 08:59:23;;;;;;;;;;;;;;;;;;137264;1272;23792;-82
2023/04/03 09:02:26;;;;;;;;;;;;;;;;;;137492;1272;22495;-82
2023/04/03 09:05:27;;;;;;;;;;;;;;;;;;137670;1272;22952;-84
2023/04/03 09:08:28;;;;;;;;;;;;;;;;;;137475;1272;22553;-83
2023/04/03 09:11:29;;;;;;;;;;;;;;;;;;137013;1272;22562;-82
2023/04/03 09:14:31;;;;;;;;;;;;;;;;;;137080;1272;22480;-83
2023/04/03 09:17:33;;;;;;;;;;;;;;;;;;136660;1272;22522;-84
2023/04/03 09:20:34;;;;;;;;;;;;;;;;;;137648;1272;22537;-84
2023/04/03 09:23:35;;;;;;;;;;;;;;;;;;137183;1272;22518;-84
2023/04/03 09:26:36;;;;;;;;;;;;;;;;;;136956;1272;22556;-82
2023/04/03 09:29:37;;;;;;;;;;;;;;;;;;137642;1272;22564;-82
2023/04/03 09:32:38;;;;;;;;;;;;;;;;;;137338;1272;22530;-80
2023/04/03 09:35:40;;;;;;;;;;;;;;;;;;137682;1269;22286;-82
2023/04/03 09:38:43;;;;;;;;;;;;;;;;;;137677;1272;22317;-82
2023/04/03 09:41:44;;;;;;;;;;;;;;;;;;137656;1272;22299;-82
2023/04/03 09:44:45;;;;;;;;;;;;;;;;;;137671;1272;22256;-81
2023/04/03 09:47:47;;;;;;;;;;;;;;;;;;137664;1272;22391;-80
2023/04/03 09:50:48;;;;;;;;;;;;;;;;;;137672;1272;22705;-81
2023/04/03 09:53:49;;;;;;;;;;;;;;;;;;136993;1272;22525;-81
2023/04/03 09:56:50;;;;;;;;;;;;;;;;;;136722;1272;22530;-81
2023/04/03 09:59:51;;;;;;;;;;;;;;;;;;137694;1266;22327;-78
2023/04/03 10:02:52;;;;;;;;;;;;;;;;;;137717;1272;22926;-81
2023/04/03 10:05:55;;;;;;;;;;;;;;;;;;137758;1272;22337;-80
2023/04/03 10:08:56;;;;;;;;;;;;;;;;;;137713;1272;22336;-80
2023/04/03 10:11:57;;;;;;;;;;;;;;;;;;137680;1272;22926;-80
2023/04/03 10:14:58;;;;;;;;;;;;;;;;;;137716;1268;22292;-80
2023/04/03 10:17:59;;;;;;;;;;;;;;;;;;137733;1272;22353;-79
2023/04/03 10:21:01;;;;;;;;;;;;;;;;;;137693;1268;22448;-80
2023/04/03 10:24:02;;;;;;;;;;;;;;;;;;137689;1269;22293;-81
2023/04/03 10:27:03;;;;;;;;;;;;;;;;;;137698;1272;22323;-79
2023/04/03 10:30:04;;;;;;;;;;;;;;;;;;137687;1272;22420;-79
2023/04/03 10:33:06;;;;;;;;;;;;;;;;;;137659;1272;22342;-81
2023/04/03 10:36:09;;;;;;;;;;;;;;;;;;137673;1272;22371;-80
2023/04/03 10:39:10;;;;;;;;;;;;;;;;;;137743;1272;22278;-80
2023/04/03 10:42:11;;;;;;;;;;;;;;;;;;137735;1272;22400;-80
2023/04/03 10:45:12;;;;;;;;;;;;;;;;;;137731;1272;22281;-80
2023/04/03 10:48:15;;;;;;;;;;;;;;;;;;137741;1269;22386;-80
2023/04/03 10:51:16;;;;;;;;;;;;;;;;;;137683;1272;22492;-81
2023/04/03 10:54:17;;;;;;;;;;;;;;;;;;137601;1272;22474;-80
2023/04/03 10:57:18;;;;;;;;;;;;;;;;;;137041;1272;24863;-82
2023/04/03 11:00:19;;;;;;;;;;;;;;;;;;137412;1272;22504;-82
2023/04/03 11:03:20;;;;;;;;;;;;;;;;;;137349;1272;23040;-81
2023/04/03 11:06:23;;;;;;;;;;;;;;;;;;137741;1272;22598;-81
2023/04/03 11:09:24;;;;;;;;;;;;;;;;;;137759;1272;22328;-79
2023/04/03 11:12:26;;;;;;;;;;;;;;;;;;137516;1272;22569;-81
2023/04/03 11:15:27;;;;;;;;;;;;;;;;;;137719;1272;22278;-80
2023/04/03 11:18:28;;;;;;;;;;;;;;;;;;137697;1269;23143;-81
2023/04/03 11:21:30;;;;;;;;;;;;;;;;;;137673;1272;22329;-80
2023/04/03 11:24:31;;;;;;;;;;;;;;;;;;137721;1272;22293;-81
2023/04/03 11:27:33;;;;;;;;;;;;;;;;;;137678;1272;22327;-80
2023/04/03 11:30:34;;;;;;;;;;;;;;;;;;137645;1272;22299;-83
2023/04/03 11:33:35;;;;;;;;;;;;;;;;;;137234;1272;22510;-83
2023/04/03 11:36:36;;;;;;;;;;;;;;;;;;137719;1272;22314;-81
2023/04/03 11:39:38;;;;;;;;;;;;;;;;;;137694;1272;22767;-81
2023/04/03 11:42:39;;;;;;;;;;;;;;;;;;137548;1272;22340;-81
2023/04/03 11:45:40;;;;;;;;;;;;;;;;;;137682;1272;22805;-79
2023/04/03 11:48:41;;;;;;;;;;;;;;;;;;137709;1272;22389;-82
2023/04/03 11:51:42;;;;;;;;;;;;;;;;;;137186;1272;22548;-80
2023/04/03 11:54:44;;;;;;;;;;;;;;;;;;136841;1272;22527;-82
2023/04/03 11:57:46;;;;;;;;;;;;;;;;;;137701;1272;22272;-81
2023/04/03 12:00:47;;;;;;;;;;;;;;;;;;137684;1272;22336;-83
2023/04/03 12:03:48;;;;;;;;;;;;;;;;;;137697;1272;22937;-83
2023/04/03 12:06:49;;;;;;;;;;;;;;;;;;137626;1272;22283;-81
2023/04/03 12:09:50;;;;;;;;;;;;;;;;;;137605;1272;23231;-82
2023/04/03 12:12:51;;;;;;;;;;;;;;;;;;137605;1272;22323;-83
2023/04/03 12:15:53;;;;;;;;;;;;;;;;;;137610;1272;22314;-83
2023/04/03 12:18:55;;;;;;;;;;;;;;;;;;137598;1272;22366;-85
2023/04/03 12:21:58;;;;;;;;;;;;;;;;;;137563;1272;22322;-83
2023/04/03 12:24:59;;;;;;;;;;;;;;;;;;137598;1272;22264;-83
2023/04/03 12:28:00;;;;;;;;;;;;;;;;;;137596;1272;23239;-82
2023/04/03 12:31:01;;;;;;;;;;;;;;;;;;137583;1272;22785;-81
2023/04/03 12:34:02;;;;;;;;;;;;;;;;;;137573;1272;23128;-81
2023/04/03 12:37:03;;;;;;;;;;;;;;;;;;137623;1272;22394;-83
2023/04/03 12:40:04;;;;;;;;;;;;;;;;;;137665;1272;22830;-80
2023/04/03 12:43:06;;;;;;;;;;;;;;;;;;137669;1272;22676;-84
2023/04/03 12:46:07;;;;;;;;;;;;;;;;;;137656;1266;22392;-81
2023/04/03 12:49:08;;;;;;;;;;;;;;;;;;137637;1272;22274;-83
2023/04/03 12:52:09;;;;;;;;;;;;;;;;;;137651;1272;22854;-83
2023/04/03 12:55:11;;;;;;;;;;;;;;;;;;137677;1272;22328;-83
2023/04/03 12:58:12;;;;;;;;;;;;;;;;;;137605;1272;22332;-83
2023/04/03 13:01:13;;;;;;;;;;;;;;;;;;137609;1272;22406;-85
2023/04/03 13:04:14;;;;;;;;;;;;;;;;;;137698;1272;22321;-83
2023/04/03 13:07:15;;;;;;;;;;;;;;;;;;137643;1272;22341;-83
2023/04/03 13:10:16;;;;;;;;;;;;;;;;;;137554;1272;22572;-83
2023/04/03 13:13:17;;;;;;;;;;;;;;;;;;137663;1272;22346;-83
2023/04/03 13:16:18;;;;;;;;;;;;;;;;;;137674;1272;22378;-85
2023/04/03 13:19:20;;;;;;;;;;;;;;;;;;137677;1272;22306;-84
2023/04/03 13:22:21;;;;;;;;;;;;;;;;;;137657;1272;22340;-85
2023/04/03 13:25:22;;;;;;;;;;;;;;;;;;137674;1272;22269;-83
2023/04/03 13:28:23;;;;;;;;;;;;;;;;;;137613;1272;22368;-84
2023/04/03 13:31:24;;;;;;;;;;;;;;;;;;137634;1272;22332;-84
2023/04/03 13:34:26;;;;;;;;;;;;;;;;;;137640;1272;22764;-84
2023/04/03 13:37:27;;;;;;;;;;;;;;;;;;137624;1272;22325;-82
2023/04/03 13:40:28;;;;;;;;;;;;;;;;;;137618;1272;22330;-84
2023/04/03 13:43:29;;;;;;;;;;;;;;;;;;137665;1272;22320;-82
2023/04/03 13:46:30;;;;;;;;;;;;;;;;;;137671;1272;22389;-83
2023/04/03 13:49:31;;;;;;;;;;;;;;;;;;137592;1272;22965;-86
2023/04/03 13:52:35;;;;;;;;;;;;;;;;;;137672;1272;22326;-83
2023/04/03 13:55:36;;;;;;;;;;;;;;;;;;137654;1272;22314;-82
2023/04/03 13:58:38;;;;;;;;;;;;;;;;;;137703;1272;22325;-84
2023/04/03 14:01:39;;;;;;;;;;;;;;;;;;137685;1272;22329;-82
2023/04/03 14:04:40;;;;;;;;;;;;;;;;;;137664;1272;22346;-81
2023/04/03 14:07:41;;;;;;;;;;;;;;;;;;137658;1272;22334;-84
2023/04/03 14:10:42;;;;;;;;;;;;;;;;;;137649;1272;22410;-79
2023/04/03 14:13:43;;;;;;;;;;;;;;;;;;137678;1272;22360;-79
2023/04/03 14:16:44;;;;;;;;;;;;;;;;;;137675;1267;22441;-84
2023/04/03 14:19:46;;;;;;;;;;;;;;;;;;137106;1272;22490;-83
2023/04/03 14:22:47;;;;;;;;;;;;;;;;;;137688;1272;22524;-83
2023/04/03 14:25:48;;;;;;;;;;;;;;;;;;137647;1272;22538;-83
2023/04/03 14:28:49;;;;;;;;;;;;;;;;;;137573;1272;22526;-83
2023/04/03 14:31:50;;;;;;;;;;;;;;;;;;137243;1272;22532;-83
2023/04/03 14:34:51;;;;;;;;;;;;;;;;;;137689;1272;22521;-81
2023/04/03 14:37:52;;;;;;;;;;;;;;;;;;137174;1272;22850;-83
2023/04/03 14:40:53;;;;;;;;;;;;;;;;;;137167;1272;22541;-84
2023/04/03 14:43:54;;;;;;;;;;;;;;;;;;137515;1272;22493;-83
2023/04/03 14:46:56;;;;;;;;;;;;;;;;;;137143;1272;22559;-83
2023/04/03 14:49:57;;;;;;;;;;;;;;;;;;137635;1272;22491;-83
2023/04/03 14:52:58;;;;;;;;;;;;;;;;;;137499;1272;22518;-84
2023/04/03 14:55:59;;;;;;;;;;;;;;;;;;136537;1272;22531;-82
2023/04/03 14:59:00;;;;;;;;;;;;;;;;;;136645;1272;22613;-83
2023/04/03 15:02:01;;;;;;;;;;;;;;;;;;137354;1272;22529;-83
2023/04/03 15:05:03;;;;;;;;;;;;;;;;;;137613;1272;22504;-81
2023/04/03 15:08:04;;;;;;;;;;;;;;;;;;137212;1272;22512;-83
2023/04/03 15:11:06;;;;;;;;;;;;;;;;;;137203;1272;24880;-86
2023/04/03 15:14:10;;;;;;;;;;;;;;;;;;137728;1272;22828;-84
2023/04/03 15:17:11;;;;;;;;;;;;;;;;;;137434;1272;22503;-84
2023/04/03 15:20:12;;;;;;;;;;;;;;;;;;137314;1272;22992;-83
2023/04/03 15:23:15;;;;;;;;;;;;;;;;;;137695;1272;22362;-83
2023/04/03 15:26:16;;;;;;;;;;;;;;;;;;137693;1272;22328;-84
2023/04/03 15:29:17;;;;;;;;;;;;;;;;;;137233;1272;22522;-81
2023/04/03 15:32:18;;;;;;;;;;;;;;;;;;137361;1272;24144;-83
2023/04/03 15:35:19;;;;;;;;;;;;;;;;;;137525;1272;22489;-83
2023/04/03 15:38:20;;;;;;;;;;;;;;;;;;137293;1272;23339;-82
2023/04/03 15:41:21;;;;;;;;;;;;;;;;;;137247;1272;22542;-82
2023/04/03 15:44:22;;;;;;;;;;;;;;;;;;137652;1272;22967;-84
2023/04/03 15:47:23;;;;;;;;;;;;;;;;;;136922;1272;22505;-83
2023/04/03 15:50:24;;;;;;;;;;;;;;;;;;137079;1269;22498;-83
2023/04/03 15:53:25;;;;;;;;;;;;;;;;;;137736;1272;22813;-85
2023/04/03 15:56:26;;;;;;;;;;;;;;;;;;136929;1272;22492;-83
2023/04/03 15:59:28;;;;;;;;;;;;;;;;;;137183;1272;22596;-84
2023/04/03 16:02:30;;;;;;;;;;;;;;;;;;137643;1272;22513;-85
2023/04/03 16:05:31;;;;;;;;;;;;;;;;;;137234;1272;22564;-84
2023/04/03 16:08:32;;;;;;;;;;;;;;;;;;137180;1272;22509;-84
2023/04/03 16:11:34;;;;;;;;;;;;;;;;;;137440;1269;22551;-86
2023/04/03 16:14:35;;;;;;;;;;;;;;;;;;137497;1269;22506;-83
2023/04/03 16:17:36;;;;;;;;;;;;;;;;;;137178;1272;22510;-85
2023/04/03 16:20:38;;;;;;;;;;;;;;;;;;137315;1263;23437;-83
2023/04/03 16:23:39;;;;;;;;;;;;;;;;;;137661;1272;22491;-84
2023/04/03 16:26:40;;;;;;;;;;;;;;;;;;137816;1272;22332;-82
2023/04/03 16:29:41;;;;;;;;;;;;;;;;;;137830;1272;22309;-84
2023/04/03 16:32:42;;;;;;;;;;;;;;;;;;137745;1272;22751;-83
2023/04/03 16:35:43;;;;;;;;;;;;;;;;;;137780;1272;22332;-84
2023/04/03 16:38:45;;;;;;;;;;;;;;;;;;137717;1272;22175;-83
2023/04/03 16:41:46;;;;;;;;;;;;;;;;;;137742;1263;22137;-82
2023/04/03 16:44:47;;;;;;;;;;;;;;;;;;137736;1272;22347;-82
2023/04/03 16:47:48;;;;;;;;;;;;;;;;;;137752;1272;22380;-83
2023/04/03 16:50:52;;;;;;;;;;;;;;;;;;137798;1272;22351;-84
2023/04/03 16:53:53;;;;;;;;;;;;;;;;;;137725;1272;22598;-83
2023/04/03 16:56:54;;;;;;;;;;;;;;;;;;137787;1272;22695;-83
2023/04/03 16:59:55;;;;;;;;;;;;;;;;;;137793;1272;22279;-86
2023/04/03 17:02:56;;;;;;;;;;;;;;;;;;137766;1272;22176;-84
2023/04/03 17:05:57;;;;;;;;;;;;;;;;;;137725;1272;22328;-83
2023/04/03 17:08:58;;;;;;;;;;;;;;;;;;137603;1272;176849;-83
2023/04/03 17:11:59;;;;;;;;;;;;;;;;;;137736;1272;22261;-84
2023/04/03 17:15:00;;;;;;;;;;;;;;;;;;137693;1272;22253;-84
2023/04/03 17:18:01;;;;;;;;;;;;;;;;;;137748;1272;22378;-84
2023/04/03 17:21:02;;;;;;;;;;;;;;;;;;137749;1272;22302;-84
2023/04/03 17:24:03;;;;;;;;;;;;;;;;;;137726;1272;22273;-83
2023/04/03 17:27:04;;;;;;;;;;;;;;;;;;137727;1272;22206;-84
2023/04/03 17:30:08;;;;;;;;;;;;;;;;;;137749;1272;22267;-83
2023/04/03 17:33:09;;;;;;;;;;;;;;;;;;137759;1272;22251;-84
2023/04/03 17:36:10;;;;;;;;;;;;;;;;;;137719;1272;22259;-83
2023/04/03 17:39:11;;;;;;;;;;;;;;;;;;137760;1270;22202;-84
2023/04/03 17:42:12;;;;;;;;;;;;;;;;;;137804;1272;22284;-85
2023/04/03 17:45:13;;;;;;;;;;;;;;;;;;137801;1272;22263;-83
2023/04/03 17:48:14;;;;;;;;;;;;;;;;;;137806;1272;22347;-83
2023/04/03 17:51:15;;;;;;;;;;;;;;;;;;137804;1272;22770;-85
2023/04/03 17:54:16;;;;;;;;;;;;;;;;;;137826;1272;22178;-83
2023/04/03 17:57:20;;;;;;;;;;;;;;;;;;137827;1272;22240;-84
2023/04/03 18:00:21;;;;;;;;;;;;;;;;;;137827;1272;22280;-84
2023/04/03 18:03:22;;;;;;;;;;;;;;;;;;137836;1269;22204;-84
2023/04/03 18:06:23;;;;;;;;;;;;;;;;;;137787;1272;22243;-84
2023/04/03 18:09:25;;;;;;;;;;;;;;;;;;137870;1272;22256;-83
2023/04/03 18:12:26;;;;;;;;;;;;;;;;;;137877;1272;22978;-84
2023/04/03 18:15:27;;;;;;;;;;;;;;;;;;137832;1272;22253;-85
2023/04/03 18:18:28;;;;;;;;;;;;;;;;;;137806;1272;22376;-84
2023/04/03 18:21:29;;;;;;;;;;;;;;;;;;137823;1272;22745;-84
2023/04/03 18:24:30;;;;;;;;;;;;;;;;;;137827;1272;22254;-84
2023/04/03 18:27:31;;;;;;;;;;;;;;;;;;137799;1272;22265;-83
2023/04/03 18:30:32;;;;;;;;;;;;;;;;;;137826;1272;22278;-85
2023/04/03 18:33:35;;;;;;;;;;;;;;;;;;137827;1272;22182;-84
2023/04/03 18:36:36;;;;;;;;;;;;;;;;;;137890;1272;22280;-83
2023/04/03 18:39:38;;;;;;;;;;;;;;;;;;137838;1272;22276;-84
2023/04/03 18:42:39;;;;;;;;;;;;;;;;;;137859;1272;22300;-83
2023/04/03 18:45:40;;;;;;;;;;;;;;;;;;137859;1272;22353;-83
2023/04/03 18:48:42;;;;;;;;;;;;;;;;;;137847;1272;22396;-84
2023/04/03 18:51:43;;;;;;;;;;;;;;;;;;137854;1272;22295;-85
2023/04/03 18:54:47;;;;;;;;;;;;;;;;;;137814;1272;22205;-84
2023/04/03 18:57:52;;;;;;;;;;;;;;;;;;137833;1272;22317;-84
2023/04/03 19:00:54;;;;;;;;;;;;;;;;;;137824;1272;22842;-85
2023/04/03 19:03:56;;;;;;;;;;;;;;;;;;137786;1272;22288;-84
2023/04/03 19:07:02;;;;;;;;;;;;;;;;;;137809;1272;22266;-85
2023/04/03 19:10:04;;;;;;;;;;;;;;;;;;137809;1272;22309;-84
2023/04/03 19:13:06;;;;;;;;;;;;;;;;;;137812;1272;22283;-85
2023/04/03 19:16:12;;;;;;;;;;;;;;;;;;137812;1267;22430;-84
2023/04/03 19:19:14;;;;;;;;;;;;;;;;;;137822;1272;22219;-84
2023/04/03 19:22:15;;;;;;;;;;;;;;;;;;137837;1272;22269;-83
2023/04/03 19:25:17;;;;;;;;;;;;;;;;;;137818;1267;22375;-84
2023/04/03 19:28:18;;;;;;;;;;;;;;;;;;137794;1272;22326;-84
2023/04/03 19:31:26;;;;;;;;;;;;;;;;;;137811;1272;22748;-84
2023/04/03 19:34:27;;;;;;;;;;;;;;;;;;137775;1269;22356;-84
2023/04/03 19:37:29;;;;;;;;;;;;;;;;;;137846;1272;22413;-85
2023/04/03 19:40:31;;;;;;;;;;;;;;;;;;137749;1265;22275;-83
2023/04/03 19:43:33;;;;;;;;;;;;;;;;;;137786;1272;22876;-84
2023/04/03 19:46:35;;;;;;;;;;;;;;;;;;137782;1272;22918;-83
2023/04/03 19:49:36;;;;;;;;;;;;;;;;;;137808;1272;22774;-84
2023/04/03 19:52:38;;;;;;;;;;;;;;;;;;137630;1272;22393;-84
2023/04/03 19:55:44;;;;;;;;;;;;;;;;;;137752;1272;22726;-84
2023/04/03 19:58:52;;;;;;;;;;;;;;;;;;137787;1272;22298;-84
2023/04/03 20:01:53;;;;;;;;;;;;;;;;;;137745;1272;22766;-83
2023/04/03 20:04:55;;;;;;;;;;;;;;;;;;137740;1272;22194;-84
2023/04/03 20:07:56;;;;;;;;;;;;;;;;;;137774;1272;22839;-82
2023/04/03 20:10:57;;;;;;;;;;;;;;;;;;137738;1272;22169;-81
2023/04/03 20:13:58;;;;;;;;;;;;;;;;;;137726;1272;22324;-82
2023/04/03 20:16:59;;;;;;;;;;;;;;;;;;137768;1272;22372;-83